createdAt,value
2023-02-24T00:01:52.625Z,47.40
2023-02-24T00:04:21.261Z,47.75
2023-02-24T00:06:49.242Z,48.52
2023-02-24T00:09:20.126Z,48.28
2023-02-24T00:11:49.230Z,48.36
2023-02-24T00:14:17.104Z,48.41
2023-02-24T00:16:45.313Z,49.49
2023-02-24T00:19:18.115Z,49.48
2023-02-24T00:21:46.608Z,49.58
2023-02-24T00:24:15.110Z,49.29
2023-02-24T00:26:42.965Z,49.22
2023-02-24T00:29:12.522Z,49.47
2023-02-24T00:31:42.972Z,50.08
2023-02-24T00:34:12.874Z,50.28
2023-02-24T00:36:40.686Z,50.06
2023-02-24T00:39:09.759Z,50.21
2023-02-24T00:41:43.679Z,51.73
2023-02-24T00:44:14.152Z,50.68
2023-02-24T00:46:44.814Z,51.04
2023-02-24T00:49:17.237Z,50.88
2023-02-24T00:51:46.824Z,51.58
2023-02-24T00:54:16.908Z,50.50
2023-02-24T00:56:46.212Z,51.16
2023-02-24T00:59:18.689Z,50.86
2023-02-24T01:01:46.553Z,50.80
2023-02-24T01:04:15.754Z,51.52
2023-02-24T01:07:00.141Z,50.04
2023-02-24T01:09:30.465Z,50.22
2023-02-24T01:12:17.120Z,50.22
2023-02-24T01:14:47.848Z,51.38
2023-02-24T01:17:16.841Z,51.40
2023-02-24T01:19:45.833Z,52.45
2023-02-24T01:22:15.111Z,51.53
2023-02-24T01:24:44.602Z,52.26
2023-02-24T01:27:13.584Z,51.42
2023-02-24T01:29:41.293Z,51.57
2023-02-24T01:32:14.879Z,51.83
2023-02-24T01:34:43.100Z,51.72
2023-02-24T01:37:10.928Z,51.07
2023-02-24T01:39:38.670Z,50.78
2023-02-24T01:42:06.925Z,50.61
2023-02-24T01:44:34.511Z,50.88
2023-02-24T01:47:02.011Z,51.19
2023-02-24T01:49:36.995Z,51.73
2023-02-24T01:52:09.177Z,51.56
2023-02-24T01:54:43.114Z,51.77
2023-02-24T01:57:16.656Z,51.25
2023-02-24T01:59:47.279Z,50.91
2023-02-24T02:02:15.631Z,51.52
2023-02-24T02:04:47.011Z,51.99
2023-02-24T02:07:17.167Z,51.66
2023-02-24T02:09:46.809Z,52.08
2023-02-24T02:12:14.652Z,51.63
2023-02-24T02:14:48.014Z,52.11
2023-02-24T02:17:26.658Z,53.35
2023-02-24T02:20:15.858Z,53.33
2023-02-24T02:23:07.695Z,53.10
2023-02-24T02:25:56.456Z,53.67
2023-02-24T02:28:47.696Z,53.29
2023-02-24T02:31:33.983Z,53.59
2023-02-24T02:34:22.599Z,52.62
2023-02-24T02:37:16.337Z,53.73
2023-02-24T02:40:19.961Z,53.22
2023-02-24T02:42:54.119Z,52.09
2023-02-24T02:45:25.967Z,52.41
2023-02-24T02:47:59.715Z,52.43
2023-02-24T02:50:39.069Z,51.90
2023-02-24T02:53:16.213Z,51.70
2023-02-24T02:55:45.958Z,51.98
2023-02-24T02:58:16.655Z,52.47
2023-02-24T03:01:01.744Z,52.55
2023-02-24T03:03:33.108Z,51.41
2023-02-24T03:06:06.984Z,52.13
2023-02-24T03:08:38.274Z,51.16
2023-02-24T03:11:11.006Z,52.19
2023-02-24T03:13:41.797Z,52.05
2023-02-24T03:16:10.952Z,52.29
2023-02-24T03:18:41.463Z,52.45
2023-02-24T03:21:13.731Z,53.60
2023-02-24T03:23:46.140Z,52.65
2023-02-24T03:26:21.316Z,52.86
2023-02-24T03:28:59.258Z,52.01
2023-02-24T03:31:51.120Z,52.21
2023-02-24T03:34:24.320Z,52.53
2023-02-24T03:36:54.646Z,52.61
2023-02-24T03:39:23.660Z,52.85
2023-02-24T03:42:01.554Z,52.13
2023-02-24T03:44:30.096Z,51.76
2023-02-24T03:46:57.550Z,52.24
2023-02-24T03:49:25.579Z,53.11
2023-02-24T03:52:32.653Z,53.07
2023-02-24T03:55:24.909Z,53.27
2023-02-24T03:58:12.847Z,52.39
2023-02-24T04:00:57.842Z,50.84
2023-02-24T04:03:32.974Z,51.29
2023-02-24T04:06:28.021Z,51.92
2023-02-24T04:09:26.090Z,51.86
2023-02-24T04:12:09.897Z,51.99
2023-02-24T04:15:11.877Z,54.08
2023-02-24T04:17:46.361Z,53.93
2023-02-24T04:20:16.729Z,53.96
2023-02-24T04:22:49.719Z,53.86
2023-02-24T04:25:20.127Z,53.97
2023-02-24T04:27:48.063Z,53.54
2023-02-24T04:30:15.688Z,53.60
2023-02-24T04:32:44.409Z,53.44
2023-02-24T04:35:15.506Z,53.63
2023-02-24T04:37:46.460Z,53.47
2023-02-24T04:40:22.167Z,53.51
2023-02-24T04:42:52.027Z,52.55
2023-02-24T04:45:28.229Z,52.70
2023-02-24T04:48:01.037Z,52.12
2023-02-24T04:50:35.343Z,52.37
2023-02-24T04:53:09.574Z,53.23
2023-02-24T04:55:40.421Z,53.01
2023-02-24T04:58:12.795Z,52.45
2023-02-24T05:00:42.259Z,53.20
2023-02-24T05:03:11.914Z,53.09
2023-02-24T05:05:39.684Z,52.36
2023-02-24T05:08:09.424Z,52.13
2023-02-24T05:10:43.972Z,53.34
2023-02-24T05:13:27.780Z,53.11
2023-02-24T05:15:57.227Z,54.13
2023-02-24T05:18:25.809Z,54.38
2023-02-24T05:21:14.155Z,53.72
2023-02-24T05:23:46.887Z,53.81
2023-02-24T05:26:19.554Z,54.14
2023-02-24T05:28:49.519Z,54.32
2023-02-24T05:31:19.591Z,53.85
2023-02-24T05:33:50.103Z,53.95
2023-02-24T05:36:18.981Z,54.62
2023-02-24T05:38:48.034Z,55.34
2023-02-24T05:41:20.113Z,55.04
2023-02-24T05:43:54.895Z,55.17
2023-02-24T05:46:28.342Z,55.33
2023-02-24T05:48:57.085Z,55.72
2023-02-24T05:51:35.484Z,56.28
2023-02-24T05:54:05.064Z,56.03
2023-02-24T05:56:37.768Z,55.93
2023-02-24T05:59:06.789Z,55.72
2023-02-24T06:01:45.732Z,55.62
2023-02-24T06:04:27.920Z,55.59
2023-02-24T06:06:55.400Z,55.32
2023-02-24T06:09:23.388Z,54.52
2023-02-24T06:11:51.015Z,53.98
2023-02-24T06:14:18.561Z,53.63
2023-02-24T06:16:46.768Z,53.89
2023-02-24T06:19:15.724Z,54.39
2023-02-24T06:21:44.287Z,54.92
2023-02-24T06:24:18.613Z,55.29
2023-02-24T06:26:46.548Z,55.96
2023-02-24T06:29:15.682Z,56.45
2023-02-24T06:31:44.327Z,55.47
2023-02-24T06:34:13.297Z,55.26
2023-02-24T06:36:41.214Z,55.27
2023-02-24T06:39:09.374Z,54.91
2023-02-24T06:41:38.181Z,56.03
2023-02-24T06:44:06.302Z,57.36
2023-02-24T06:46:33.975Z,56.31
2023-02-24T06:49:01.658Z,55.62
2023-02-24T06:51:30.384Z,54.83
2023-02-24T06:53:59.526Z,55.29
2023-02-24T06:56:27.875Z,56.06
2023-02-24T06:58:57.058Z,56.02
2023-02-24T07:01:26.787Z,55.68
2023-02-24T07:04:02.201Z,56.03
2023-02-24T07:06:34.361Z,55.85
2023-02-24T07:09:07.186Z,56.45
2023-02-24T07:11:35.669Z,56.01
2023-02-24T07:14:05.935Z,56.08
2023-02-24T07:16:35.529Z,55.58
2023-02-24T07:19:11.315Z,56.31
2023-02-24T07:21:43.441Z,57.16
2023-02-24T07:24:20.216Z,56.51
2023-02-24T07:26:51.920Z,57.34
2023-02-24T07:29:19.729Z,55.64
2023-02-24T07:31:49.030Z,56.71
2023-02-24T07:34:26.581Z,57.44
2023-02-24T07:36:55.877Z,57.08
2023-02-24T07:39:24.900Z,57.02
2023-02-24T07:41:55.288Z,56.90
2023-02-24T07:44:26.461Z,56.94
2023-02-24T07:46:55.104Z,56.47
2023-02-24T07:49:37.529Z,55.25
2023-02-24T07:52:08.395Z,54.92
2023-02-24T07:54:40.913Z,55.63
2023-02-24T07:57:14.396Z,56.15
2023-02-24T07:59:45.764Z,55.46
2023-02-24T08:02:14.043Z,54.84
2023-02-24T08:04:50.250Z,56.11
2023-02-24T08:07:25.262Z,55.49
2023-02-24T08:10:14.757Z,55.17
2023-02-24T08:12:43.094Z,54.41
2023-02-24T08:15:17.496Z,55.06
2023-02-24T08:17:47.665Z,54.36
2023-02-24T08:20:15.537Z,53.73
2023-02-24T08:22:47.129Z,55.40
2023-02-24T08:25:19.140Z,54.87
2023-02-24T08:28:07.437Z,54.69
2023-02-24T08:30:40.084Z,55.08
2023-02-24T08:33:10.110Z,55.49
2023-02-24T08:35:41.837Z,54.83
2023-02-24T08:38:14.499Z,55.12
2023-02-24T08:40:51.387Z,54.08
2023-02-24T08:43:31.101Z,54.22
2023-02-24T08:46:03.925Z,53.70
2023-02-24T08:48:37.749Z,54.09
2023-02-24T08:51:25.115Z,55.07
2023-02-24T08:53:54.315Z,55.03
2023-02-24T08:56:27.431Z,52.88
2023-02-24T08:59:06.145Z,54.43
2023-02-24T09:01:37.294Z,54.64
2023-02-24T09:04:10.129Z,53.70
2023-02-24T09:06:40.495Z,53.33
2023-02-24T09:09:23.073Z,53.46
2023-02-24T09:11:59.612Z,53.05
2023-02-24T09:14:42.393Z,53.09
2023-02-24T09:17:15.070Z,52.10
2023-02-24T09:19:48.147Z,52.24
2023-02-24T09:22:32.788Z,51.40
2023-02-24T09:25:19.148Z,51.36
2023-02-24T09:28:09.888Z,51.14
2023-02-24T09:30:51.273Z,51.08
2023-02-24T09:33:38.922Z,50.76
2023-02-24T09:36:20.720Z,51.17
2023-02-24T09:39:02.123Z,52.53
2023-02-24T09:42:04.945Z,51.33
2023-02-24T09:44:33.746Z,51.13
2023-02-24T09:47:09.152Z,51.83
2023-02-24T09:49:59.129Z,52.80
2023-02-24T09:52:42.481Z,53.09
2023-02-24T09:55:45.241Z,51.14
2023-02-24T09:58:21.485Z,50.95
2023-02-24T10:01:21.866Z,50.29
2023-02-24T10:04:23.098Z,50.93
2023-02-24T10:06:55.385Z,52.83
2023-02-24T10:09:27.621Z,52.72
2023-02-24T10:12:04.589Z,51.56
2023-02-24T10:15:17.031Z,51.42
2023-02-24T10:17:55.494Z,50.18
2023-02-24T10:20:40.262Z,50.04
2023-02-24T10:23:33.391Z,50.15
2023-02-24T10:26:31.988Z,50.50
2023-02-24T10:29:02.792Z,49.76
2023-02-24T10:31:38.101Z,50.25
2023-02-24T10:34:10.052Z,50.49
2023-02-24T10:36:38.095Z,48.94
2023-02-24T10:39:20.526Z,49.44
2023-02-24T10:41:57.463Z,49.87
2023-02-24T10:44:36.261Z,48.28
2023-02-24T10:47:13.174Z,48.38
2023-02-24T10:49:57.157Z,48.33
2023-02-24T10:53:09.584Z,46.81
2023-02-24T10:55:42.857Z,46.80
2023-02-24T10:58:37.556Z,47.01
2023-02-24T11:01:13.662Z,45.95
2023-02-24T11:04:01.372Z,45.54
2023-02-24T11:06:40.458Z,44.19
2023-02-24T11:09:29.603Z,44.43
2023-02-24T11:12:31.864Z,43.89
2023-02-24T11:15:21.321Z,44.33
2023-02-24T11:17:59.429Z,44.66
2023-02-24T11:20:48.000Z,45.64
2023-02-24T11:23:20.386Z,45.09
2023-02-24T11:25:50.254Z,44.46
2023-02-24T11:28:40.991Z,45.30
2023-02-24T11:31:31.027Z,43.80
2023-02-24T11:34:01.092Z,43.98
2023-02-24T11:36:54.565Z,44.04
2023-02-24T11:39:25.257Z,45.78
2023-02-24T11:41:56.245Z,46.00
2023-02-24T11:44:34.778Z,44.28
2023-02-24T11:47:09.743Z,43.86
2023-02-24T11:49:50.690Z,43.84
2023-02-24T11:52:38.911Z,43.78
2023-02-24T11:55:15.410Z,42.93
2023-02-24T11:57:46.956Z,42.57
2023-02-24T12:00:25.679Z,43.66
2023-02-24T12:03:07.166Z,42.67
2023-02-24T12:05:39.184Z,42.64
2023-02-24T12:08:09.822Z,43.19
2023-02-24T12:10:50.527Z,42.35
2023-02-24T12:13:30.541Z,42.46
2023-02-24T12:16:04.625Z,43.18
2023-02-24T12:18:40.300Z,43.03
2023-02-24T12:21:13.435Z,42.75
2023-02-24T12:23:44.614Z,41.84
2023-02-24T12:26:32.449Z,41.75
2023-02-24T12:29:12.542Z,42.15
2023-02-24T12:32:07.942Z,42.57
2023-02-24T12:34:52.519Z,41.85
2023-02-24T12:37:27.584Z,41.47
2023-02-24T12:40:11.748Z,41.24
2023-02-24T12:42:48.273Z,42.06
2023-02-24T12:45:30.824Z,42.52
2023-02-24T12:48:33.512Z,42.61
2023-02-24T12:51:23.163Z,41.80
2023-02-24T12:54:00.147Z,42.03
2023-02-24T12:56:38.143Z,43.19
2023-02-24T12:59:06.618Z,43.55
2023-02-24T13:01:38.445Z,43.25
2023-02-24T13:04:32.050Z,43.83
2023-02-24T13:07:09.859Z,43.95
2023-02-24T13:10:07.988Z,43.76
2023-02-24T13:12:41.652Z,43.92
2023-02-24T13:15:24.230Z,43.18
2023-02-24T13:17:55.311Z,43.49
2023-02-24T13:20:32.431Z,43.77
2023-02-24T13:23:01.984Z,43.26
2023-02-24T13:25:35.476Z,43.26
2023-02-24T13:28:06.458Z,43.16
2023-02-24T13:30:40.676Z,43.04
2023-02-24T13:33:17.431Z,43.13
2023-02-24T13:35:46.946Z,43.09
2023-02-24T13:38:49.797Z,43.11
2023-02-24T13:41:21.055Z,42.46
2023-02-24T13:43:59.155Z,42.73
2023-02-24T13:47:00.616Z,42.66
2023-02-24T13:49:37.676Z,42.86
2023-02-24T13:52:32.667Z,41.35
2023-02-24T13:55:24.659Z,41.16
2023-02-24T13:57:59.861Z,40.34
2023-02-24T14:00:35.187Z,39.52
2023-02-24T14:03:10.292Z,39.72
2023-02-24T14:05:40.686Z,39.62
2023-02-24T14:08:08.522Z,39.95
2023-02-24T14:10:37.773Z,39.98
2023-02-24T14:13:16.259Z,39.75
2023-02-24T14:15:45.334Z,40.46
2023-02-24T14:18:22.196Z,40.66
2023-02-24T14:20:52.313Z,41.52
2023-02-24T14:23:25.724Z,40.66
2023-02-24T14:26:00.917Z,41.40
2023-02-24T14:28:32.100Z,41.29
2023-02-24T14:31:15.779Z,41.65
2023-02-24T14:33:45.116Z,41.63
2023-02-24T14:36:24.376Z,41.52
2023-02-24T14:39:09.347Z,42.33
2023-02-24T14:41:37.260Z,42.11
2023-02-24T14:44:13.475Z,42.27
2023-02-24T14:46:52.950Z,41.49
2023-02-24T14:49:29.844Z,41.75
2023-02-24T14:52:23.757Z,41.20
2023-02-24T14:55:00.932Z,41.34
2023-02-24T14:57:34.884Z,41.77
2023-02-24T15:00:11.202Z,41.95
2023-02-24T15:02:44.468Z,41.14
2023-02-24T15:05:12.325Z,41.83
2023-02-24T15:07:44.448Z,41.50
2023-02-24T15:10:22.532Z,41.84
2023-02-24T15:13:12.794Z,42.42
2023-02-24T15:15:42.628Z,42.10
2023-02-24T15:18:23.825Z,41.60
2023-02-24T15:21:06.401Z,42.17
2023-02-24T15:23:37.611Z,41.91
2023-02-24T15:26:11.090Z,41.94
2023-02-24T15:28:43.596Z,42.34
2023-02-24T15:31:17.828Z,41.93
2023-02-24T15:33:53.664Z,42.06
2023-02-24T15:36:24.843Z,42.26
2023-02-24T15:38:55.347Z,42.06
2023-02-24T15:41:23.121Z,42.18
2023-02-24T15:43:53.227Z,41.87
2023-02-24T15:46:35.758Z,41.75
2023-02-24T15:49:05.031Z,41.28
2023-02-24T15:51:32.781Z,41.20
2023-02-24T15:54:01.812Z,41.64
2023-02-24T15:56:32.298Z,41.78
2023-02-24T15:59:02.986Z,43.57
2023-02-24T16:01:31.142Z,42.76
2023-02-24T16:04:00.467Z,41.34
2023-02-24T16:06:28.594Z,41.69
2023-02-24T16:08:57.216Z,42.03
2023-02-24T16:11:27.467Z,42.41
2023-02-24T16:13:57.634Z,41.94
2023-02-24T16:16:26.790Z,41.76
2023-02-24T16:18:54.564Z,42.53
2023-02-24T16:21:22.111Z,41.68
2023-02-24T16:23:50.548Z,42.37
2023-02-24T16:26:23.552Z,42.21
2023-02-24T16:28:56.922Z,42.42
2023-02-24T16:31:26.338Z,42.01
2023-02-24T16:33:55.965Z,42.20
2023-02-24T16:36:25.800Z,42.49
2023-02-24T16:38:54.304Z,42.07
2023-02-24T16:41:21.903Z,42.09
2023-02-24T16:43:50.099Z,42.39
2023-02-24T16:46:22.869Z,43.44
2023-02-24T16:48:53.505Z,42.99
2023-02-24T16:51:22.049Z,42.68
2023-02-24T16:53:49.645Z,42.44
2023-02-24T16:56:18.104Z,41.87
2023-02-24T17:01:20.126Z,43.46
2023-02-24T17:06:29.280Z,42.13
2023-02-24T17:08:57.267Z,42.13
2023-02-24T17:11:26.484Z,42.87
2023-02-24T17:16:22.094Z,43.42
2023-02-24T17:21:24.432Z,43.06
2023-02-24T17:26:31.782Z,43.31
2023-02-24T17:31:31.785Z,45.03
2023-02-24T17:36:39.132Z,43.94
2023-02-24T17:39:06.936Z,43.94
2023-02-24T17:41:34.597Z,44.49
2023-02-24T17:46:53.786Z,44.94
2023-02-24T17:49:21.376Z,46.17
2023-02-24T17:51:49.395Z,45.55
2023-02-24T17:54:16.972Z,44.97
2023-02-24T17:56:44.526Z,44.90
2023-02-24T18:01:39.683Z,45.87
2023-02-24T18:06:42.771Z,46.11
2023-02-24T18:11:45.918Z,45.75
2023-02-24T18:14:14.433Z,45.62
2023-02-24T18:16:42.038Z,45.68
2023-02-24T18:19:09.410Z,46.76
2023-02-24T18:21:37.222Z,46.56
2023-02-24T18:24:05.306Z,47.29
2023-02-24T18:26:32.826Z,47.42
2023-02-24T18:29:00.776Z,45.58
2023-02-24T18:31:28.887Z,46.71
2023-02-24T18:33:57.239Z,46.37
2023-02-24T18:36:25.649Z,46.82
2023-02-24T18:38:53.248Z,46.72
2023-02-24T18:41:22.116Z,46.86
2023-02-24T18:43:54.252Z,47.79
2023-02-24T18:46:22.731Z,47.59
2023-02-24T18:48:50.902Z,47.42
2023-02-24T18:51:21.673Z,47.65
2023-02-24T18:53:51.489Z,48.53
2023-02-24T18:56:23.615Z,48.26
2023-02-24T18:58:55.394Z,48.35
2023-02-24T19:01:30.698Z,47.87
2023-02-24T19:03:58.827Z,49.44
2023-02-24T19:06:28.685Z,49.12
2023-02-24T19:09:06.677Z,49.15
2023-02-24T19:11:34.629Z,49.17
2023-02-24T19:14:03.071Z,48.97
2023-02-24T19:16:30.943Z,49.20
2023-02-24T19:19:00.133Z,47.73
2023-02-24T19:21:29.569Z,48.14
2023-02-24T19:24:03.660Z,48.83
2023-02-24T19:26:31.607Z,48.28
2023-02-24T19:29:03.375Z,48.83
2023-02-24T19:31:33.318Z,49.10
2023-02-24T19:34:04.031Z,49.77
2023-02-24T19:36:33.180Z,51.01
2023-02-24T19:39:01.687Z,50.94
2023-02-24T19:41:29.807Z,50.88
2023-02-24T19:43:57.227Z,51.11
2023-02-24T19:46:25.487Z,51.67
2023-02-24T19:48:53.557Z,51.70
2023-02-24T19:51:23.661Z,51.50
2023-02-24T19:53:56.600Z,50.67
2023-02-24T19:56:32.354Z,50.17
2023-02-24T19:59:01.170Z,50.00
2023-02-24T20:01:29.696Z,50.11
2023-02-24T20:03:59.764Z,50.21
2023-02-24T20:06:31.697Z,51.15
2023-02-24T20:09:00.198Z,51.34
2023-02-24T20:11:30.417Z,52.49
2023-02-24T20:13:58.159Z,52.52
2023-02-24T20:16:27.314Z,52.62
2023-02-24T20:18:55.431Z,51.67
2023-02-24T20:21:23.394Z,52.49
2023-02-24T20:23:51.475Z,52.35
2023-02-24T20:26:19.642Z,54.47
2023-02-24T20:28:48.072Z,54.04
2023-02-24T20:31:19.659Z,54.00
2023-02-24T20:33:48.600Z,54.31
2023-02-24T20:36:23.894Z,55.74
2023-02-24T20:38:52.446Z,55.69
2023-02-24T20:41:21.751Z,55.10
2023-02-24T20:43:49.492Z,55.70
2023-02-24T20:46:25.228Z,54.46
2023-02-24T20:48:56.789Z,54.73
2023-02-24T20:51:25.166Z,54.64
2023-02-24T20:53:57.696Z,54.57
2023-02-24T20:56:27.909Z,54.04
2023-02-24T20:59:07.687Z,54.40
2023-02-24T21:01:35.882Z,56.07
2023-02-24T21:04:03.785Z,56.12
2023-02-24T21:06:31.591Z,56.59
2023-02-24T21:08:59.147Z,56.18
2023-02-24T21:11:27.316Z,55.69
2023-02-24T21:13:55.010Z,55.32
2023-02-24T21:16:23.168Z,54.42
2023-02-24T21:18:53.315Z,54.94
2023-02-24T21:21:21.258Z,56.16
2023-02-24T21:23:48.990Z,56.13
2023-02-24T21:26:17.874Z,55.96
2023-02-24T21:28:46.319Z,54.32
2023-02-24T21:31:17.173Z,54.77
2023-02-24T21:33:45.096Z,54.85
2023-02-24T21:36:14.996Z,53.56
2023-02-24T21:38:42.717Z,55.36
2023-02-24T21:41:14.733Z,55.39
2023-02-24T21:43:42.665Z,55.24
2023-02-24T21:46:11.406Z,55.99
2023-02-24T21:48:40.629Z,55.57
2023-02-24T21:51:10.054Z,53.96
2023-02-24T21:53:39.413Z,55.76
2023-02-24T21:56:11.117Z,56.59
2023-02-24T21:58:40.376Z,55.41
2023-02-24T22:01:20.121Z,54.63
2023-02-24T22:03:48.284Z,54.29
2023-02-24T22:06:17.756Z,55.40
2023-02-24T22:08:45.741Z,55.52
2023-02-24T22:11:15.756Z,54.91
2023-02-24T22:13:44.341Z,55.49
2023-02-24T22:16:15.371Z,55.28
2023-02-24T22:18:44.295Z,54.91
2023-02-24T22:21:17.181Z,55.29
2023-02-24T22:23:46.112Z,55.00
2023-02-24T22:26:14.546Z,54.89
2023-02-24T22:28:43.865Z,54.37
2023-02-24T22:31:12.868Z,54.72
2023-02-24T22:33:41.781Z,54.39
2023-02-24T22:36:25.261Z,54.37
2023-02-24T22:38:54.878Z,55.91
2023-02-24T22:41:24.618Z,54.80
2023-02-24T22:43:53.970Z,55.60
2023-02-24T22:46:25.226Z,55.93
2023-02-24T22:48:52.900Z,58.90
2023-02-24T22:51:20.743Z,56.08
2023-02-24T22:53:50.095Z,57.91
2023-02-24T22:56:20.457Z,58.48
2023-02-24T22:58:48.794Z,56.45
2023-02-24T23:01:22.406Z,57.31
2023-02-24T23:03:50.757Z,57.10
2023-02-24T23:06:22.076Z,58.94
2023-02-24T23:08:50.740Z,57.74
2023-02-24T23:11:21.063Z,58.29
2023-02-24T23:13:50.267Z,59.12
2023-02-24T23:16:21.899Z,58.60
2023-02-24T23:18:56.189Z,60.23
2023-02-24T23:21:33.802Z,60.51
2023-02-24T23:24:02.195Z,60.77
2023-02-24T23:26:39.344Z,59.92
2023-02-24T23:29:07.348Z,59.61
2023-02-24T23:31:35.789Z,60.11
2023-02-24T23:34:06.998Z,59.01
2023-02-24T23:36:36.905Z,58.88
2023-02-24T23:39:06.602Z,58.33
2023-02-24T23:41:35.858Z,58.90
2023-02-24T23:44:04.097Z,60.60
2023-02-24T23:46:35.951Z,60.51
2023-02-24T23:49:04.803Z,59.52
2023-02-24T23:51:47.133Z,59.33
2023-02-24T23:54:16.985Z,60.87
2023-02-24T23:56:44.861Z,60.40
2023-02-24T23:59:12.427Z,59.89
